ULLI/LED METAR and TAF weather

Enter ICAO airport designator
Station Type Date Time Source
ULLI METAR 2018/01/23 01:00 UTC NOAA

ULLI 230100Z 27002MPS CAVOK M13/M15 Q1015 R28L/490539 NOSIG


Station Type Date Time Source
ULLI Decoded METAR 2018/01/23 01:00 UTC NOAA

St. Peterburg, Russia (ULLI) 59-58N 030-18E 6M
Jan 22, 2018 - 08:00 PM EST / 2018.01.23 0100 UTC
Wind: from the W (270 degrees) at 4 MPH (4 KT):0
Visibility: greater than 7 mile(s):0
Temperature: 8 F (-13 C)
Dew Point: 5 F (-15 C)
Relative Humidity: 84%
Pressure (altimeter): 29.97 in. Hg (1015 hPa)
ob: ULLI 230100Z 27002MPS CAVOK M13/M15 Q1015 R28L/490539 NOSIG
cycle: 1

Station Type Date Time Source
ULLI TAF 2018/01/22 21:21 UTC NOAA

TAF TAF ULLI 222000Z 2221/2321 26002MPS 4000 BR BKN007 BKN020
TEMPO 2221/2309 33002MPS 1500 -SHSN BR BKN004 BKN013CB
BECMG 2309/2310 9999 NSW BKN011
TEMPO 2309/2321 32002MPS 3100 -SHSN BKN006 BKN015CB


Example: see airport list